sensor_id;sensor_type;location;lat;lon;timestamp;pressure;altitude;pressure_sealevel;temperature;humidity
77041;BME280;65974;42.664;23.264;2023-05-21T00:01:33;94296.09;;;11.73;89.33
77041;BME280;65974;42.664;23.264;2023-05-21T00:03:58;94296.50;;;11.60;89.91
77041;BME280;65974;42.664;23.264;2023-05-21T00:06:24;94289.25;;;11.57;89.98
77041;BME280;65974;42.664;23.264;2023-05-21T00:08:49;94285.44;;;11.58;90.02
77041;BME280;65974;42.664;23.264;2023-05-21T00:11:15;94278.97;;;11.52;90.30
77041;BME280;65974;42.664;23.264;2023-05-21T00:13:40;94282.44;;;11.49;90.08
77041;BME280;65974;42.664;23.264;2023-05-21T00:16:06;94281.31;;;11.43;90.66
77041;BME280;65974;42.664;23.264;2023-05-21T00:18:32;94282.06;;;11.47;90.25
77041;BME280;65974;42.664;23.264;2023-05-21T00:20:59;94277.44;;;11.55;89.79
77041;BME280;65974;42.664;23.264;2023-05-21T00:23:24;94273.63;;;11.59;89.77
77041;BME280;65974;42.664;23.264;2023-05-21T00:25:51;94271.34;;;11.68;89.11
77041;BME280;65974;42.664;23.264;2023-05-21T00:28:17;94269.81;;;11.60;89.01
77041;BME280;65974;42.664;23.264;2023-05-21T00:30:42;94277.13;;;11.42;89.69
77041;BME280;65974;42.664;23.264;2023-05-21T00:33:08;94272.19;;;11.41;90.16
77041;BME280;65974;42.664;23.264;2023-05-21T00:35:34;94274.09;;;11.37;90.23
77041;BME280;65974;42.664;23.264;2023-05-21T00:38:00;94266.50;;;11.28;89.93
77041;BME280;65974;42.664;23.264;2023-05-21T00:40:26;94263.81;;;11.32;90.33
77041;BME280;65974;42.664;23.264;2023-05-21T00:42:53;94268.41;;;11.28;90.00
77041;BME280;65974;42.664;23.264;2023-05-21T00:45:23;94264.59;;;11.25;90.15
77041;BME280;65974;42.664;23.264;2023-05-21T00:47:50;94262.28;;;11.31;89.59
77041;BME280;65974;42.664;23.264;2023-05-21T00:50:19;94260.00;;;11.29;89.48
77041;BME280;65974;42.664;23.264;2023-05-21T00:52:45;94257.34;;;11.33;89.93
77041;BME280;65974;42.664;23.264;2023-05-21T00:55:13;94257.72;;;11.31;89.91
77041;BME280;65974;42.664;23.264;2023-05-21T00:57:39;94253.16;;;11.32;89.57
77041;BME280;65974;42.664;23.264;2023-05-21T01:00:06;94262.66;;;11.36;89.41
77041;BME280;65974;42.664;23.264;2023-05-21T01:02:34;94251.59;;;11.38;89.09
77041;BME280;65974;42.664;23.264;2023-05-21T01:05:01;94256.19;;;11.41;89.05
77041;BME280;65974;42.664;23.264;2023-05-21T01:07:30;94252.00;;;11.29;89.44
77041;BME280;65974;42.664;23.264;2023-05-21T01:10:00;94264.22;;;11.30;89.33
77041;BME280;65974;42.664;23.264;2023-05-21T01:12:26;94253.91;;;11.36;88.88
77041;BME280;65974;42.664;23.264;2023-05-21T01:14:52;94247.81;;;11.32;89.02
77041;BME280;65974;42.664;23.264;2023-05-21T01:17:17;94256.59;;;11.25;88.95
77041;BME280;65974;42.664;23.264;2023-05-21T01:19:45;94251.66;;;11.17;89.42
77041;BME280;65974;42.664;23.264;2023-05-21T01:22:11;94235.69;;;11.10;89.74
77041;BME280;65974;42.664;23.264;2023-05-21T01:24:38;94246.38;;;11.06;90.06
77041;BME280;65974;42.664;23.264;2023-05-21T01:27:04;94240.28;;;11.09;89.54
77041;BME280;65974;42.664;23.264;2023-05-21T01:29:32;94238.78;;;10.94;90.10
77041;BME280;65974;42.664;23.264;2023-05-21T01:32:04;94239.16;;;10.89;90.00
77041;BME280;65974;42.664;23.264;2023-05-21T01:34:46;94240.69;;;10.86;90.44
77041;BME280;65974;42.664;23.264;2023-05-21T01:37:21;94237.28;;;10.79;90.62
77041;BME280;65974;42.664;23.264;2023-05-21T01:39:55;94247.53;;;10.91;89.93
77041;BME280;65974;42.664;23.264;2023-05-21T01:42:22;94244.88;;;10.87;90.20
77041;BME280;65974;42.664;23.264;2023-05-21T01:44:51;94243.00;;;10.88;90.07
77041;BME280;65974;42.664;23.264;2023-05-21T01:47:22;94247.56;;;10.70;90.32
77041;BME280;65974;42.664;23.264;2023-05-21T01:49:49;94233.13;;;10.71;90.80
77041;BME280;65974;42.664;23.264;2023-05-21T01:52:15;94234.22;;;10.80;90.57
77041;BME280;65974;42.664;23.264;2023-05-21T01:54:40;94238.78;;;10.87;89.97
77041;BME280;65974;42.664;23.264;2023-05-21T01:57:06;94235.75;;;10.92;89.99
77041;BME280;65974;42.664;23.264;2023-05-21T01:59:31;94236.47;;;11.00;90.39
77041;BME280;65974;42.664;23.264;2023-05-21T02:01:57;94235.31;;;11.08;89.45
77041;BME280;65974;42.664;23.264;2023-05-21T02:04:22;94225.03;;;11.13;89.42
77041;BME280;65974;42.664;23.264;2023-05-21T02:06:48;94223.84;;;11.25;89.03
77041;BME280;65974;42.664;23.264;2023-05-21T02:09:13;94219.66;;;11.27;88.48
77041;BME280;65974;42.664;23.264;2023-05-21T02:11:38;94216.97;;;11.27;88.58
77041;BME280;65974;42.664;23.264;2023-05-21T02:14:04;94215.88;;;11.21;88.06
77041;BME280;65974;42.664;23.264;2023-05-21T02:16:29;94219.69;;;11.10;88.53
77041;BME280;65974;42.664;23.264;2023-05-21T02:18:55;94214.00;;;11.08;88.71
77041;BME280;65974;42.664;23.264;2023-05-21T02:21:22;94222.78;;;11.05;88.56
77041;BME280;65974;42.664;23.264;2023-05-21T02:23:47;94218.22;;;10.94;89.22
77041;BME280;65974;42.664;23.264;2023-05-21T02:26:13;94220.88;;;10.98;89.38
77041;BME280;65974;42.664;23.264;2023-05-21T02:28:38;94213.66;;;10.95;89.11
77041;BME280;65974;42.664;23.264;2023-05-21T02:31:04;94213.66;;;10.99;89.26
77041;BME280;65974;42.664;23.264;2023-05-21T02:33:30;94211.75;;;10.88;89.15
77041;BME280;65974;42.664;23.264;2023-05-21T02:35:55;94222.47;;;10.71;89.74
77041;BME280;65974;42.664;23.264;2023-05-21T02:38:21;94219.03;;;10.56;90.16
77041;BME280;65974;42.664;23.264;2023-05-21T02:40:48;94221.31;;;10.44;90.56
77041;BME280;65974;42.664;23.264;2023-05-21T02:43:14;94218.31;;;10.35;90.42
77041;BME280;65974;42.664;23.264;2023-05-21T02:45:39;94215.25;;;10.29;90.95
77041;BME280;65974;42.664;23.264;2023-05-21T02:48:05;94212.97;;;10.42;90.04
77041;BME280;65974;42.664;23.264;2023-05-21T02:50:30;94218.66;;;10.44;89.95
77041;BME280;65974;42.664;23.264;2023-05-21T02:52:56;94212.97;;;10.42;89.87
77041;BME280;65974;42.664;23.264;2023-05-21T02:55:21;94205.72;;;10.46;89.35
77041;BME280;65974;42.664;23.264;2023-05-21T02:57:47;94208.41;;;10.39;89.58
77041;BME280;65974;42.664;23.264;2023-05-21T03:00:12;94217.91;;;10.43;89.58
77041;BME280;65974;42.664;23.264;2023-05-21T03:02:39;94206.88;;;10.38;90.08
77041;BME280;65974;42.664;23.264;2023-05-21T03:05:05;94210.69;;;10.47;89.56
77041;BME280;65974;42.664;23.264;2023-05-21T03:07:30;94205.72;;;10.42;89.43
77041;BME280;65974;42.664;23.264;2023-05-21T03:09:56;94212.97;;;10.38;89.74
77041;BME280;65974;42.664;23.264;2023-05-21T03:12:21;94219.03;;;10.46;89.56
77041;BME280;65974;42.664;23.264;2023-05-21T03:14:48;94222.47;;;10.53;88.92
77041;BME280;65974;42.664;23.264;2023-05-21T03:17:15;94224.00;;;10.30;89.68
77041;BME280;65974;42.664;23.264;2023-05-21T03:19:42;94220.19;;;10.17;90.37
77041;BME280;65974;42.664;23.264;2023-05-21T03:22:08;94222.47;;;10.22;90.34
77041;BME280;65974;42.664;23.264;2023-05-21T03:24:36;94219.81;;;10.14;90.26
77041;BME280;65974;42.664;23.264;2023-05-21T03:27:02;94217.88;;;10.11;90.56
77041;BME280;65974;42.664;23.264;2023-05-21T03:29:30;94229.66;;;10.07;91.07
77041;BME280;65974;42.664;23.264;2023-05-21T03:31:55;94226.59;;;10.08;90.60
77041;BME280;65974;42.664;23.264;2023-05-21T03:34:21;94226.22;;;10.03;91.45
77041;BME280;65974;42.664;23.264;2023-05-21T03:36:48;94236.09;;;10.02;91.44
77041;BME280;65974;42.664;23.264;2023-05-21T03:39:14;94234.97;;;10.03;91.60
77041;BME280;65974;42.664;23.264;2023-05-21T03:41:40;94228.88;;;10.06;92.45
77041;BME280;65974;42.664;23.264;2023-05-21T03:44:05;94228.94;;;10.28;92.21
77041;BME280;65974;42.664;23.264;2023-05-21T03:46:31;94226.66;;;10.40;91.97
77041;BME280;65974;42.664;23.264;2023-05-21T03:48:57;94229.69;;;10.56;91.38
77041;BME280;65974;42.664;23.264;2023-05-21T03:51:23;94225.50;;;10.66;91.29
77041;BME280;65974;42.664;23.264;2023-05-21T03:53:49;94221.28;;;10.75;90.90
77041;BME280;65974;42.664;23.264;2023-05-21T03:56:15;94235.00;;;10.81;90.54
77041;BME280;65974;42.664;23.264;2023-05-21T03:58:40;94222.78;;;10.90;90.92
77041;BME280;65974;42.664;23.264;2023-05-21T04:01:06;94224.31;;;10.84;90.86
77041;BME280;65974;42.664;23.264;2023-05-21T04:03:33;94220.53;;;10.85;91.25
77041;BME280;65974;42.664;23.264;2023-05-21T04:05:59;94216.69;;;11.01;90.40
77041;BME280;65974;42.664;23.264;2023-05-21T04:08:25;94223.16;;;11.00;90.77
77041;BME280;65974;42.664;23.264;2023-05-21T04:10:51;94226.56;;;11.07;90.88
77041;BME280;65974;42.664;23.264;2023-05-21T04:13:17;94221.19;;;11.21;90.45
77041;BME280;65974;42.664;23.264;2023-05-21T04:15:42;94222.31;;;11.20;90.86
77041;BME280;65974;42.664;23.264;2023-05-21T04:18:11;94226.53;;;11.18;91.09
77041;BME280;65974;42.664;23.264;2023-05-21T04:20:38;94215.47;;;11.26;90.73
77041;BME280;65974;42.664;23.264;2023-05-21T04:23:03;94221.56;;;11.30;90.69
77041;BME280;65974;42.664;23.264;2023-05-21T04:25:29;94220.75;;;11.33;90.89
77041;BME280;65974;42.664;23.264;2023-05-21T04:27:54;94225.34;;;11.29;90.94
77041;BME280;65974;42.664;23.264;2023-05-21T04:30:20;94221.56;;;11.30;90.95
77041;BME280;65974;42.664;23.264;2023-05-21T04:32:46;94216.56;;;11.36;90.89
77041;BME280;65974;42.664;23.264;2023-05-21T04:35:12;94216.56;;;11.43;90.81
77041;BME280;65974;42.664;23.264;2023-05-21T04:37:39;94215.03;;;11.45;90.66
77041;BME280;65974;42.664;23.264;2023-05-21T04:40:07;94230.19;;;11.59;90.45
77041;BME280;65974;42.664;23.264;2023-05-21T04:42:33;94217.97;;;11.65;89.57
77041;BME280;65974;42.664;23.264;2023-05-21T04:44:59;94210.72;;;11.73;89.76
77041;BME280;65974;42.664;23.264;2023-05-21T04:47:24;94217.97;;;11.65;90.27
77041;BME280;65974;42.664;23.264;2023-05-21T04:49:50;94220.59;;;11.79;90.14
77041;BME280;65974;42.664;23.264;2023-05-21T04:52:15;94220.91;;;11.92;90.02
77041;BME280;65974;42.664;23.264;2023-05-21T04:54:41;94216.63;;;12.05;89.14
77041;BME280;65974;42.664;23.264;2023-05-21T04:57:07;94215.47;;;12.06;89.21
77041;BME280;65974;42.664;23.264;2023-05-21T04:59:33;94222.31;;;12.10;88.61
77041;BME280;65974;42.664;23.264;2023-05-21T05:01:59;94212.34;;;12.18;88.08
77041;BME280;65974;42.664;23.264;2023-05-21T05:04:25;94212.34;;;12.18;88.30
77041;BME280;65974;42.664;23.264;2023-05-21T05:06:50;94211.16;;;12.22;87.70
77041;BME280;65974;42.664;23.264;2023-05-21T05:09:17;94210.72;;;12.31;87.39
77041;BME280;65974;42.664;23.264;2023-05-21T05:11:42;94213.00;;;12.29;87.14
77041;BME280;65974;42.664;23.264;2023-05-21T05:14:08;94212.94;;;12.43;86.43
77041;BME280;65974;42.664;23.264;2023-05-21T05:16:34;94210.59;;;12.48;86.04
77041;BME280;65974;42.664;23.264;2023-05-21T05:18:59;94209.81;;;12.48;85.85
77041;BME280;65974;42.664;23.264;2023-05-21T05:21:25;94205.88;;;12.63;85.60
77041;BME280;65974;42.664;23.264;2023-05-21T05:23:50;94212.41;;;12.59;84.94
77041;BME280;65974;42.664;23.264;2023-05-21T05:26:16;94208.53;;;12.67;85.18
77041;BME280;65974;42.664;23.264;2023-05-21T05:28:41;94205.00;;;12.77;85.05
77041;BME280;65974;42.664;23.264;2023-05-21T05:31:07;94212.16;;;12.87;84.49
77041;BME280;65974;42.664;23.264;2023-05-21T05:33:32;94212.44;;;12.96;84.22
77041;BME280;65974;42.664;23.264;2023-05-21T05:35:58;94213.13;;;13.07;84.09
77041;BME280;65974;42.664;23.264;2023-05-21T05:38:24;94210.81;;;13.09;83.60
77041;BME280;65974;42.664;23.264;2023-05-21T05:40:50;94206.91;;;13.17;83.86
77041;BME280;65974;42.664;23.264;2023-05-21T05:43:15;94210.28;;;13.21;83.77
77041;BME280;65974;42.664;23.264;2023-05-21T05:45:41;94209.06;;;13.29;83.04
77041;BME280;65974;42.664;23.264;2023-05-21T05:48:06;94202.84;;;13.39;82.81
77041;BME280;65974;42.664;23.264;2023-05-21T05:50:32;94200.75;;;13.54;82.52
77041;BME280;65974;42.664;23.264;2023-05-21T05:52:57;94196.75;;;13.65;81.44
77041;BME280;65974;42.664;23.264;2023-05-21T05:55:23;94197.44;;;13.73;80.60
77041;BME280;65974;42.664;23.264;2023-05-21T05:57:49;94200.88;;;13.73;80.82
77041;BME280;65974;42.664;23.264;2023-05-21T06:00:15;94202.34;;;13.78;81.11
77041;BME280;65974;42.664;23.264;2023-05-21T06:02:40;94200.97;;;13.93;79.70
77041;BME280;65974;42.664;23.264;2023-05-21T06:05:06;94203.72;;;13.89;79.11
77041;BME280;65974;42.664;23.264;2023-05-21T06:07:32;94201.53;;;14.08;78.13
77041;BME280;65974;42.664;23.264;2023-05-21T06:09:58;94200.22;;;14.19;77.58
77041;BME280;65974;42.664;23.264;2023-05-21T06:12:24;94197.72;;;14.35;77.16
77041;BME280;65974;42.664;23.264;2023-05-21T06:14:50;94197.84;;;14.51;77.48
77041;BME280;65974;42.664;23.264;2023-05-21T06:17:15;94189.88;;;14.71;76.42
77041;BME280;65974;42.664;23.264;2023-05-21T06:19:41;94193.00;;;14.89;73.73
77041;BME280;65974;42.664;23.264;2023-05-21T06:22:06;94189.66;;;15.05;74.53
77041;BME280;65974;42.664;23.264;2023-05-21T06:24:32;94187.00;;;15.24;72.89
77041;BME280;65974;42.664;23.264;2023-05-21T06:26:57;94182.44;;;15.41;71.87
77041;BME280;65974;42.664;23.264;2023-05-21T06:29:23;94183.97;;;15.62;72.11
77041;BME280;65974;42.664;23.264;2023-05-21T06:31:48;94187.22;;;15.89;68.76
77041;BME280;65974;42.664;23.264;2023-05-21T06:34:14;94174.75;;;16.14;67.94
77041;BME280;65974;42.664;23.264;2023-05-21T06:36:40;94177.97;;;16.25;64.44
77041;BME280;65974;42.664;23.264;2023-05-21T06:39:05;94173.94;;;16.33;63.20
77041;BME280;65974;42.664;23.264;2023-05-21T06:41:31;94166.44;;;16.25;62.55
77041;BME280;65974;42.664;23.264;2023-05-21T06:43:56;94172.00;;;16.34;64.51
77041;BME280;65974;42.664;23.264;2023-05-21T06:46:22;94173.44;;;16.39;64.45
77041;BME280;65974;42.664;23.264;2023-05-21T06:48:47;94166.19;;;16.36;61.36
77041;BME280;65974;42.664;23.264;2023-05-21T06:51:13;94167.22;;;16.25;61.73
77041;BME280;65974;42.664;23.264;2023-05-21T06:53:38;94165.88;;;16.17;63.61
77041;BME280;65974;42.664;23.264;2023-05-21T06:56:04;94167.53;;;16.11;63.66
77041;BME280;65974;42.664;23.264;2023-05-21T06:58:29;94174.59;;;16.05;64.82
77041;BME280;65974;42.664;23.264;2023-05-21T07:00:58;94166.09;;;16.07;65.42
77041;BME280;65974;42.664;23.264;2023-05-21T07:03:24;94170.56;;;16.13;65.66
77041;BME280;65974;42.664;23.264;2023-05-21T07:05:49;94169.22;;;16.21;65.38
77041;BME280;65974;42.664;23.264;2023-05-21T07:08:15;94163.78;;;16.41;63.92
77041;BME280;65974;42.664;23.264;2023-05-21T07:10:41;94159.66;;;16.53;64.48
77041;BME280;65974;42.664;23.264;2023-05-21T07:13:06;94160.75;;;16.71;63.47
77041;BME280;65974;42.664;23.264;2023-05-21T07:15:32;94152.75;;;16.84;62.33
77041;BME280;65974;42.664;23.264;2023-05-21T07:17:57;94161.44;;;17.04;60.87
77041;BME280;65974;42.664;23.264;2023-05-21T07:20:23;94166.47;;;17.18;60.26
77041;BME280;65974;42.664;23.264;2023-05-21T07:22:48;94165.06;;;17.26;58.30
77041;BME280;65974;42.664;23.264;2023-05-21T07:25:14;94158.13;;;17.41;59.03
77041;BME280;65974;42.664;23.264;2023-05-21T07:27:40;94165.31;;;17.60;59.59
77041;BME280;65974;42.664;23.264;2023-05-21T07:30:06;94167.25;;;17.72;60.49
77041;BME280;65974;42.664;23.264;2023-05-21T07:32:32;94161.34;;;17.77;58.23
77041;BME280;65974;42.664;23.264;2023-05-21T07:34:59;94161.34;;;17.77;57.45
77041;BME280;65974;42.664;23.264;2023-05-21T07:37:26;94158.13;;;17.95;55.37
77041;BME280;65974;42.664;23.264;2023-05-21T07:39:52;94168.38;;;18.13;54.81
77041;BME280;65974;42.664;23.264;2023-05-21T07:42:18;94157.91;;;18.15;52.96
77041;BME280;65974;42.664;23.264;2023-05-21T07:44:43;94159.63;;;18.09;53.30
77041;BME280;65974;42.664;23.264;2023-05-21T07:47:09;94163.41;;;18.11;52.66
77041;BME280;65974;42.664;23.264;2023-05-21T07:49:34;94156.41;;;18.01;52.86
77041;BME280;65974;42.664;23.264;2023-05-21T07:52:00;94156.63;;;18.19;54.02
77041;BME280;65974;42.664;23.264;2023-05-21T07:54:27;94160.50;;;18.31;52.99
77041;BME280;65974;42.664;23.264;2023-05-21T07:56:52;94155.19;;;18.40;53.91
77041;BME280;65974;42.664;23.264;2023-05-21T07:59:18;94164.25;;;18.58;51.39
77041;BME280;65974;42.664;23.264;2023-05-21T08:01:43;94155.41;;;18.58;51.95
77041;BME280;65974;42.664;23.264;2023-05-21T08:04:09;94158.13;;;18.45;51.21
77041;BME280;65974;42.664;23.264;2023-05-21T08:06:34;94151.13;;;18.48;50.65
77041;BME280;65974;42.664;23.264;2023-05-21T08:09:04;94160.03;;;18.57;50.65
77041;BME280;65974;42.664;23.264;2023-05-21T08:11:30;94159.28;;;18.57;50.89
77041;BME280;65974;42.664;23.264;2023-05-21T08:13:56;94159.59;;;18.72;50.42
77041;BME280;65974;42.664;23.264;2023-05-21T08:16:22;94151.34;;;18.88;49.43
77041;BME280;65974;42.664;23.264;2023-05-21T08:18:48;94156.63;;;18.91;50.10
77041;BME280;65974;42.664;23.264;2023-05-21T08:21:13;94145.91;;;19.00;50.03
77041;BME280;65974;42.664;23.264;2023-05-21T08:23:39;94155.53;;;19.01;47.33
77041;BME280;65974;42.664;23.264;2023-05-21T08:26:04;94158.09;;;19.05;45.58
77041;BME280;65974;42.664;23.264;2023-05-21T08:28:31;94152.25;;;19.06;45.59
77041;BME280;65974;42.664;23.264;2023-05-21T08:30:56;94150.75;;;19.05;44.46
77041;BME280;65974;42.664;23.264;2023-05-21T08:33:21;94150.78;;;18.93;44.59
77041;BME280;65974;42.664;23.264;2023-05-21T08:35:47;94157.81;;;18.90;45.25
77041;BME280;65974;42.664;23.264;2023-05-21T08:38:13;94157.50;;;18.88;44.03
77041;BME280;65974;42.664;23.264;2023-05-21T08:40:38;94170.25;;;18.75;43.70
77041;BME280;65974;42.664;23.264;2023-05-21T08:43:05;94158.94;;;18.68;43.06
77041;BME280;65974;42.664;23.264;2023-05-21T08:45:33;94160.47;;;18.69;43.26
77041;BME280;65974;42.664;23.264;2023-05-21T08:48:03;94171.69;;;18.67;43.19
77041;BME280;65974;42.664;23.264;2023-05-21T08:50:30;94164.00;;;18.78;42.43
77041;BME280;65974;42.664;23.264;2023-05-21T08:52:55;94155.66;;;18.85;43.02
77041;BME280;65974;42.664;23.264;2023-05-21T08:55:23;94159.06;;;18.98;43.07
77041;BME280;65974;42.664;23.264;2023-05-21T08:57:48;94150.31;;;19.07;43.51
77041;BME280;65974;42.664;23.264;2023-05-21T09:00:15;94151.25;;;19.13;43.63
77041;BME280;65974;42.664;23.264;2023-05-21T09:02:41;94159.03;;;19.32;43.88
77041;BME280;65974;42.664;23.264;2023-05-21T09:05:08;94163.97;;;19.47;43.26
77041;BME280;65974;42.664;23.264;2023-05-21T09:07:58;94164.03;;;19.34;43.70
77041;BME280;65974;42.664;23.264;2023-05-21T09:10:28;94157.47;;;19.22;44.26
77041;BME280;65974;42.664;23.264;2023-05-21T09:12:55;94144.22;;;19.15;44.53
77041;BME280;65974;42.664;23.264;2023-05-21T09:15:22;94158.28;;;19.10;44.68
77041;BME280;65974;42.664;23.264;2023-05-21T09:17:47;94156.69;;;19.00;45.28
77041;BME280;65974;42.664;23.264;2023-05-21T09:20:13;94161.53;;;19.05;46.08
77041;BME280;65974;42.664;23.264;2023-05-21T09:22:44;94159.16;;;19.07;46.61
77041;BME280;65974;42.664;23.264;2023-05-21T09:25:12;94162.31;;;19.06;48.01
77041;BME280;65974;42.664;23.264;2023-05-21T09:27:38;94161.28;;;19.12;47.76
77041;BME280;65974;42.664;23.264;2023-05-21T09:30:11;94157.53;;;19.31;45.60
77041;BME280;65974;42.664;23.264;2023-05-21T09:32:38;94164.97;;;19.62;45.25
77041;BME280;65974;42.664;23.264;2023-05-21T09:37:40;94164.34;;;19.58;44.02
77041;BME280;65974;42.664;23.264;2023-05-21T09:40:18;94143.50;;;19.58;41.16
77041;BME280;65974;42.664;23.264;2023-05-21T09:42:57;94156.88;;;19.40;39.39
77041;BME280;65974;42.664;23.264;2023-05-21T09:45:27;94152.84;;;19.45;39.92
77041;BME280;65974;42.664;23.264;2023-05-21T09:47:54;94145.50;;;19.45;38.34
77041;BME280;65974;42.664;23.264;2023-05-21T09:50:27;94143.75;;;19.51;38.69
77041;BME280;65974;42.664;23.264;2023-05-21T09:52:53;94149.66;;;19.59;38.30
77041;BME280;65974;42.664;23.264;2023-05-21T09:55:24;94153.03;;;19.72;38.97
77041;BME280;65974;42.664;23.264;2023-05-21T09:57:50;94148.19;;;19.67;37.53
77041;BME280;65974;42.664;23.264;2023-05-21T10:02:46;94147.63;;;19.72;38.92
77041;BME280;65974;42.664;23.264;2023-05-21T10:05:16;94149.22;;;19.91;38.29
77041;BME280;65974;42.664;23.264;2023-05-21T10:07:50;94150.72;;;19.92;38.60
77041;BME280;65974;42.664;23.264;2023-05-21T10:10:18;94143.50;;;19.89;37.27
77041;BME280;65974;42.664;23.264;2023-05-21T10:12:46;94136.75;;;19.93;37.74
77041;BME280;65974;42.664;23.264;2023-05-21T10:15:16;94145.31;;;19.92;38.65
77041;BME280;65974;42.664;23.264;2023-05-21T10:17:45;94146.63;;;20.18;38.20
77041;BME280;65974;42.664;23.264;2023-05-21T10:20:12;94149.16;;;20.12;38.02
77041;BME280;65974;42.664;23.264;2023-05-21T10:22:38;94138.47;;;20.09;37.29
77041;BME280;65974;42.664;23.264;2023-05-21T10:25:07;94128.47;;;20.19;38.45
77041;BME280;65974;42.664;23.264;2023-05-21T10:27:34;94139.31;;;20.28;38.33
77041;BME280;65974;42.664;23.264;2023-05-21T10:30:00;94130.19;;;20.34;37.86
77041;BME280;65974;42.664;23.264;2023-05-21T10:32:26;94126.94;;;20.48;38.83
77041;BME280;65974;42.664;23.264;2023-05-21T10:34:55;94125.88;;;20.64;37.96
77041;BME280;65974;42.664;23.264;2023-05-21T10:37:25;94126.06;;;20.69;38.14
77041;BME280;65974;42.664;23.264;2023-05-21T10:39:52;94120.34;;;20.95;37.09
77041;BME280;65974;42.664;23.264;2023-05-21T10:42:23;94124.84;;;20.79;38.27
77041;BME280;65974;42.664;23.264;2023-05-21T10:45:15;94120.66;;;20.69;37.72
77041;BME280;65974;42.664;23.264;2023-05-21T11:01:11;94122.88;;;19.73;39.28
77041;BME280;65974;42.664;23.264;2023-05-21T11:03:38;94125.13;;;19.75;39.20
77041;BME280;65974;42.664;23.264;2023-05-21T11:06:04;94131.41;;;19.72;40.23
77041;BME280;65974;42.664;23.264;2023-05-21T11:08:31;94126.88;;;19.69;40.88
77041;BME280;65974;42.664;23.264;2023-05-21T11:10:59;94128.22;;;19.64;41.37
77041;BME280;65974;42.664;23.264;2023-05-21T11:13:26;94129.22;;;19.58;41.45
77041;BME280;65974;42.664;23.264;2023-05-21T11:21:14;94122.88;;;19.30;41.63
77041;BME280;65974;42.664;23.264;2023-05-21T11:26:19;94119.22;;;19.24;42.27
77041;BME280;65974;42.664;23.264;2023-05-21T11:31:29;94110.34;;;19.36;43.15
77041;BME280;65974;42.664;23.264;2023-05-21T11:34:11;94115.31;;;19.68;42.19
77041;BME280;65974;42.664;23.264;2023-05-21T11:36:41;94111.75;;;19.71;41.31
77041;BME280;65974;42.664;23.264;2023-05-21T11:39:18;94111.47;;;19.48;42.03
77041;BME280;65974;42.664;23.264;2023-05-21T11:41:55;94099.41;;;19.40;42.09
77041;BME280;65974;42.664;23.264;2023-05-21T11:47:04;94099.25;;;19.21;42.24
77041;BME280;65974;42.664;23.264;2023-05-21T11:49:30;94107.34;;;19.21;42.10
77041;BME280;65974;42.664;23.264;2023-05-21T11:51:58;94096.38;;;19.16;43.06
77041;BME280;65974;42.664;23.264;2023-05-21T11:54:23;94102.78;;;19.09;42.97
77041;BME280;65974;42.664;23.264;2023-05-21T11:56:50;94093.31;;;19.05;43.16
77041;BME280;65974;42.664;23.264;2023-05-21T11:59:16;94104.09;;;19.05;43.68
77041;BME280;65974;42.664;23.264;2023-05-21T12:01:42;94096.19;;;19.10;43.67
77041;BME280;65974;42.664;23.264;2023-05-21T12:04:08;94094.69;;;19.09;43.78
77041;BME280;65974;42.664;23.264;2023-05-21T12:06:37;94095.50;;;18.97;43.07
77041;BME280;65974;42.664;23.264;2023-05-21T12:09:02;94091.75;;;18.95;44.06
77041;BME280;65974;42.664;23.264;2023-05-21T12:11:29;94087.06;;;18.95;43.29
77041;BME280;65974;42.664;23.264;2023-05-21T12:13:55;94086.13;;;18.89;44.25
77041;BME280;65974;42.664;23.264;2023-05-21T12:16:21;94088.00;;;18.80;44.95
77041;BME280;65974;42.664;23.264;2023-05-21T12:18:47;94096.22;;;18.76;46.81
77041;BME280;65974;42.664;23.264;2023-05-21T12:21:12;94089.88;;;18.70;47.47
77041;BME280;65974;42.664;23.264;2023-05-21T12:23:38;94084.78;;;18.72;46.18
77041;BME280;65974;42.664;23.264;2023-05-21T12:26:04;94095.28;;;18.70;46.13
77041;BME280;65974;42.664;23.264;2023-05-21T12:28:30;94088.94;;;18.64;45.96
77041;BME280;65974;42.664;23.264;2023-05-21T12:30:56;94086.09;;;18.68;46.05
77041;BME280;65974;42.664;23.264;2023-05-21T12:33:21;94078.66;;;18.72;46.24
77041;BME280;65974;42.664;23.264;2023-05-21T12:35:50;94089.31;;;18.75;46.42
77041;BME280;65974;42.664;23.264;2023-05-21T12:38:16;94085.78;;;18.66;47.31
77041;BME280;65974;42.664;23.264;2023-05-21T12:40:42;94084.75;;;18.63;48.13
77041;BME280;65974;42.664;23.264;2023-05-21T12:43:09;94082.34;;;18.65;47.62
77041;BME280;65974;42.664;23.264;2023-05-21T12:45:35;94069.38;;;18.73;47.16
77041;BME280;65974;42.664;23.264;2023-05-21T12:48:03;94070.25;;;18.70;47.42
77041;BME280;65974;42.664;23.264;2023-05-21T12:50:29;94077.28;;;18.67;47.74
77041;BME280;65974;42.664;23.264;2023-05-21T12:52:55;94072.94;;;18.70;47.29
77041;BME280;65974;42.664;23.264;2023-05-21T12:55:25;94073.38;;;18.68;48.03
77041;BME280;65974;42.664;23.264;2023-05-21T12:58:02;94068.72;;;18.69;47.99
77041;BME280;65974;42.664;23.264;2023-05-21T13:00:32;94076.06;;;18.68;47.61
77041;BME280;65974;42.664;23.264;2023-05-21T13:02:58;94067.13;;;18.71;48.08
77041;BME280;65974;42.664;23.264;2023-05-21T13:05:25;94072.59;;;18.68;48.16
77041;BME280;65974;42.664;23.264;2023-05-21T13:07:51;94067.97;;;18.68;48.40
77041;BME280;65974;42.664;23.264;2023-05-21T13:10:16;94067.34;;;18.64;48.47
77041;BME280;65974;42.664;23.264;2023-05-21T13:12:42;94072.97;;;18.57;48.64
77041;BME280;65974;42.664;23.264;2023-05-21T13:15:09;94068.97;;;18.62;47.80
77041;BME280;65974;42.664;23.264;2023-05-21T13:17:34;94074.56;;;18.67;46.94
77041;BME280;65974;42.664;23.264;2023-05-21T13:20:12;94066.78;;;18.69;47.90